Flight Track Log - Related Links

Times and Time Zones

All times are in EDT time to prevent confusion due to time zone crossing. See the EMD21 flight status page for this flight to view local times or setup timezone preferences in your user account.

Time Position Orientation Groundspeed Altitude Reporting Facility
EDT Latitude Longitude Course Direction KTS MPH feet Rate Location/Type
Mon 03:35:20 PM 37.6647 -97.4186 335° Northwest 141 162 1,700  Level Kansas City Center
Mon 03:36:20 PM 37.7006 -97.4397 335° Northwest 164 189 2,900 1,101 Climbing Kansas City Center
Mon 03:37:09 PM 37.7042 -97.4789 277° West 172 198 3,700 1,145 Climbing Kansas City Center
Mon 03:38:10 PM 37.7061 -97.5367 272° West 166 191 5,000 1,328 Climbing Kansas City Center
Mon 03:39:20 PM 37.7089 -97.6131 273° West 166 191 6,600 1,306 Climbing Kansas City Center
Mon 03:40:14 PM 37.7106 -97.6656 272° West 166 191 7,700 1,077 Climbing Kansas City Center
Mon 03:41:17 PM 37.7119 -97.7256 272° West 168 193 8,700 951 Climbing Kansas City Center
Mon 03:41:36 PM 37.7131 -97.7444 274° West 172 198 9,000 984 Climbing Kansas City Center
Mon 03:42:18 PM 37.7425 -97.7508 350° North 173 199 9,700 1,100 Climbing Kansas City Center
Mon 03:42:36 PM 37.7556 -97.7514 358° North 155 178 10,100 1,048 Climbing Kansas City Center
Mon 03:43:21 PM 37.7869 -97.7492 North 160 184 10,800 906 Climbing Kansas City Center
Mon 03:44:22 PM 37.8322 -97.7464 North 163 188 11,700 816 Climbing Kansas City Center
Mon 03:45:26 PM 37.8408 -97.7917 284° West 192 221 12,500 394 Climbing Kansas City Center
Mon 03:46:39 PM 37.7750 -97.7775 170° South 206 237 12,600 48 Climbing Kansas City Center
Mon 03:47:30 PM 37.7369 -97.7486 149° Southeast 223 257 12,600 -54 Level Kansas City Center
Mon 03:48:31 PM 37.7417 -97.7608 296° West 220 253 12,500  Descending Kansas City Center
Mon 03:49:32 PM 37.7194 -97.7278 130° Southeast 219 252 12,600 96 Climbing Kansas City Center
Mon 03:50:36 PM 37.6886 -97.7581 218° Southwest 228 262 12,700 -48 Climbing Kansas City Center
Mon 03:51:37 PM 37.6392 -97.7906 207° Southwest 230 265 12,500 -48 Descending Kansas City Center
Mon 03:52:40 PM 37.6775 -97.8142 334° Northwest 191 220 12,600 49 Climbing Kansas City Center
Mon 03:53:40 PM 37.7189 -97.8167 357° North 133 153 12,600 48 Level Kansas City Center
Mon 03:54:45 PM 37.7561 -97.8244 351° North 153 176 12,700  Climbing Kansas City Center
Mon 03:55:00 PM 37.7633 -97.8111 56° Northeast 149 171 12,600 -200 Descending Kansas City Center
Mon 03:55:45 PM 37.7686 -97.7911 72° East 103 119 12,500  Descending Kansas City Center
Mon 03:56:47 PM 37.7753 -97.7492 79° East 132 152 12,600  Climbing Kansas City Center
Mon 03:57:51 PM 37.7231 -97.7422 174° South 202 232 12,500 -1,680 Descending Kansas City Center
Mon 03:58:52 PM 37.6669 -97.7656 198° South 208 239 9,100 -2,371 Descending Kansas City Center
Mon 03:59:55 PM 37.6047 -97.7850 194° South 189 217 7,600 -726 Descending Kansas City Center
Mon 04:00:56 PM 37.5714 -97.8244 223° Southwest 198 228 7,600 -102 Level Kansas City Center
Mon 04:01:53 PM 37.5850 -97.8797 287° West 178 205 7,400 -774 Descending Kansas City Center
Mon 04:03:00 PM 37.6111 -97.9383 299° West 204 235 6,000 -1,328 Descending Kansas City Center
Mon 04:03:55 PM 37.6608 -97.9478 351° North 199 229 4,700 -1,053 Descending Kansas City Center
Mon 04:04:54 PM 37.7203 -97.9550 355° North 193 222 4,000 -353 Descending Kansas City Center
Mon 04:05:54 PM 37.7667 -97.9586 356° North 169 194 4,000  Level Kansas City Center
Mon 04:07:02 PM 37.8150 -97.9594 359° North 161 185 4,000 47 Level Kansas City Center
Mon 04:08:02 PM 37.8589 -97.9556 North 155 178 4,100 49 Climbing Kansas City Center
Mon 04:09:04 PM 37.9044 -97.9489 North 167 192 4,100  Level Kansas City Center
Mon 04:10:04 PM 37.9536 -97.9364 11° North 166 191 4,100  Level Kansas City Center
Mon 04:11:06 PM 37.9911 -97.9333 North 137 158 4,100 -49 Level Kansas City Center
Mon 04:12:07 PM 38.0047 -97.9658 298° West 164 189 4,000 -47 Descending Kansas City Center
Mon 04:13:14 PM 37.9675 -97.9953 212° Southwest 159 183 4,000 -175 Level Kansas City Center
Mon 04:14:24 PM 37.9767 -97.9539 74° East 152 175 3,600 -496 Descending Kansas City Center
Mon 04:15:15 PM 38.0053 -97.9261 37° Northeast 120 138 3,000 -750 Descending Kansas City Center
Mon 04:16:16 PM 38.0281 -97.9014 41° Northeast 113 130 2,200 -466 Descending Kansas City Center
Mon 04:17:11 PM 38.0469 -97.8772 45° Northeast 109 125 2,100 -164 Descending Kansas City Center
Mon 04:17:29 PM 38.0500 -97.8631 75° East 126 145 2,000  Descending Kansas City Center
Mon 04:18:30 PM 38.0731 -97.8636 359° North 122 140 2,100 505 Climbing Kansas City Center
Mon 04:19:16 PM 38.0969 -97.8964 313° West 175 201 2,900 938 Climbing Kansas City Center
Mon 04:19:34 PM 38.1006 -97.9042 301° West 139 160 3,100 984 Climbing Kansas City Center
Mon 04:20:17 PM 38.1086 -97.9531 282° West 181 208 3,900 885 Climbing Kansas City Center
Mon 04:20:35 PM 38.1069 -97.9603 254° West 164 189 4,000 98 Climbing Kansas City Center
Mon 04:21:18 PM 38.0839 -98.0047 237° Southwest 209 241 4,000  Level Kansas City Center
Mon 04:21:36 PM 38.0792 -98.0017 153° Southeast 178 205 4,000  Level Kansas City Center
Mon 04:22:18 PM 38.0414 -98.0003 178° South 191 220 4,000  Level Kansas City Center
Mon 04:22:40 PM 38.0300 -98.0144 224° Southwest 183 211 4,000  Level Kansas City Center
Mon 04:23:19 PM 38.0036 -98.0456 223° Southwest 174 200 4,000  Level Kansas City Center
Mon 04:23:40 PM 37.9950 -98.0558 223° Southwest 177 204 4,000  Level Kansas City Center
Mon 04:24:19 PM 37.9678 -98.0881 223° Southwest 179 206 4,000 95 Level Kansas City Center
Mon 04:24:43 PM 37.9561 -98.0878 179° South 177 204 4,100  Climbing Kansas City Center
Mon 04:25:20 PM 37.9358 -98.0608 134° Southeast 148 170 4,000 -98 Descending Kansas City Center
Mon 04:25:44 PM 37.9394 -98.0458 73° East 163 188 4,000  Level Kansas City Center
Mon 04:26:23 PM 37.9461 -98.0144 75° East 132 152 4,000  Level Kansas City Center
Mon 04:26:48 PM 37.9483 -98.0003 79° East 143 165 4,000 -269 Level Kansas City Center
Mon 04:27:30 PM 37.9633 -97.9719 56° Northeast 124 143 3,700 -500 Descending Kansas City Center
Mon 04:27:48 PM 37.9686 -97.9678 32° Northeast 134 154 3,500 -600 Descending Kansas City Center
Mon 04:28:30 PM 37.9917 -97.9386 45° Northeast 136 157 3,100 -375 Descending Kansas City Center
Mon 04:28:52 PM 38.0017 -97.9303 33° Northeast 132 152 3,100 -305 Level Kansas City Center
Mon 04:29:29 PM 38.0164 -97.9111 46° Northeast 121 139 2,800 -590 Descending Kansas City Center
Mon 04:29:53 PM 38.0258 -97.9008 41° Northeast 124 143 2,500 -700 Descending Kansas City Center
Mon 04:30:29 PM 38.0394 -97.8864 40° Northeast 114 131 2,100 -375 Descending Kansas City Center
Mon 04:30:57 PM 38.0503 -97.8772 34° Northeast 117 135 2,100 -97 Level Kansas City Center
Mon 04:31:31 PM 38.0706 -97.8844 344° North 122 140 2,000 -197 Descending Kansas City Center
Mon 04:31:58 PM 38.0806 -97.8808 16° North 128 147 1,900 -273 Descending Kansas City Center
Mon 04:32:59 PM 38.0600 -97.8603 142° Southeast 122 140 1,600 -295 Descending Kansas City Center

Login

Don't have an account? Register now (free) for customized features, flight alerts, and more!